Terminal Aerodrome Forecast
Issued by NWS

Home | Current Version | Previous Version | Text Only | Print | Product List | Glossary On
Versions: 1 2 3 4 5 6 7 8 9 10 11 12 13 14 15 16 17 18 19 20 21
000
FTUS43 KDVN 191100
TAFCID
TAF
KCID 191137Z 1912/2012 23005KT 6SM BR SCT250
      TEMPO 1912/1914 3SM BR
     FM191500 28011KT P6SM FEW035 SCT250
     FM200100 29003KT P6SM SKC
     FM200800 VRB02KT 3SM BR SKC=

USA.gov is the U.S. government's official web portal to all federal, state and local government web resources and services.